Anderson, Texas
Current Conditions -  °F | °C
As of 4:53 AM on Monday 20 Oct 2014 (Local Time) from KCLL Reporting Station
Clear Clear  
Wind Chill: 16°   Ceiling: Unl
Heat Index: 16°   Visibility: 10mi
Dew Point: 13°   Wind: 3mph
Humidity: 83%   Direction: 70°ENE
Pressure: 30.02"   Gusts: NA
Location:  30.49°N, 95.99°W
Report Text: KCLL 200953Z AUTO 07003KT 10SM CLR 16/13 A3002 RMK AO2 SLP163 T01610133
Loading
Personal Weather Stations






























Interactive Weather Map New forecast layout! Learn more

10-Day Weather Forecast

Advertisements
Track Severe Weather on mobile